createdAt,value
2023-03-23T00:00:03.400Z,0.00
2023-03-23T00:01:03.416Z,0.00
2023-03-23T00:02:03.382Z,0.00
2023-03-23T00:03:03.391Z,0.00
2023-03-23T00:04:03.363Z,0.00
2023-03-23T00:05:03.344Z,0.00
2023-03-23T00:06:03.327Z,0.00
2023-03-23T00:07:03.343Z,0.00
2023-03-23T00:08:03.310Z,0.00
2023-03-23T00:09:03.298Z,0.00
2023-03-23T00:10:03.293Z,0.00
2023-03-23T00:11:03.324Z,0.00
2023-03-23T00:12:03.282Z,0.00
2023-03-23T00:13:03.263Z,0.00
2023-03-23T00:14:03.251Z,0.00
2023-03-23T00:15:03.234Z,0.00
2023-03-23T00:16:04.453Z,0.00
2023-03-23T00:17:03.226Z,0.00
2023-03-23T00:18:03.200Z,0.00
2023-03-23T00:19:03.213Z,0.00
2023-03-23T00:20:03.182Z,0.00
2023-03-23T00:21:03.175Z,0.00
2023-03-23T00:22:03.221Z,0.00
2023-03-23T00:23:03.175Z,0.00
2023-03-23T00:24:03.135Z,0.00
2023-03-23T00:25:03.242Z,0.00
2023-03-23T00:26:03.118Z,0.00
2023-03-23T00:27:03.128Z,0.00
2023-03-23T00:28:03.103Z,0.00
2023-03-23T00:29:03.099Z,0.00
2023-03-23T00:30:03.085Z,0.00
2023-03-23T00:31:03.074Z,0.00
2023-03-23T00:32:03.066Z,0.00
2023-03-23T00:33:03.061Z,0.00
2023-03-23T00:34:03.077Z,0.00
2023-03-23T00:35:03.058Z,0.00
2023-03-23T00:36:03.095Z,0.00
2023-03-23T00:37:02.993Z,0.00
2023-03-23T00:38:02.997Z,0.00
2023-03-23T00:39:02.979Z,0.00
2023-03-23T00:40:02.969Z,0.00
2023-03-23T00:41:02.954Z,0.00
2023-03-23T00:42:02.955Z,0.00
2023-03-23T00:43:10.458Z,0.00
2023-03-23T00:44:02.914Z,0.00
2023-03-23T00:45:02.905Z,0.00
2023-03-23T00:46:02.894Z,0.00
2023-03-23T00:47:02.886Z,0.00
2023-03-23T00:48:02.885Z,0.00
2023-03-23T00:49:02.862Z,0.00
2023-03-23T00:50:02.861Z,0.00
2023-03-23T00:51:02.867Z,0.00
2023-03-23T00:52:02.832Z,0.00
2023-03-23T00:53:02.851Z,0.00
2023-03-23T00:54:02.813Z,0.00
2023-03-23T00:55:02.864Z,0.00
2023-03-23T00:56:02.789Z,0.00
2023-03-23T00:57:02.782Z,0.00
2023-03-23T00:58:02.775Z,0.00
2023-03-23T00:59:02.782Z,0.00
2023-03-23T01:00:05.598Z,0.00
2023-03-23T01:01:02.738Z,0.00
2023-03-23T01:02:02.733Z,0.00
2023-03-23T01:03:02.750Z,0.00
2023-03-23T01:04:02.704Z,0.00
2023-03-23T01:05:02.709Z,0.00
2023-03-23T01:06:02.682Z,0.00
2023-03-23T01:07:02.690Z,0.00
2023-03-23T01:08:02.657Z,0.00
2023-03-23T01:09:02.688Z,0.00
2023-03-23T01:10:02.653Z,0.00
2023-03-23T01:11:02.645Z,0.00
2023-03-23T01:12:02.617Z,0.00
2023-03-23T01:13:02.606Z,0.00
2023-03-23T01:14:02.619Z,0.00
2023-03-23T01:15:02.586Z,0.00
2023-03-23T01:16:03.101Z,0.00
2023-03-23T01:17:02.574Z,0.00
2023-03-23T01:18:02.558Z,0.00
2023-03-23T01:19:02.550Z,0.00
2023-03-23T01:20:02.529Z,0.00
2023-03-23T01:21:02.538Z,0.00
2023-03-23T01:22:02.531Z,0.00
2023-03-23T01:23:02.574Z,0.00
2023-03-23T01:24:02.493Z,0.00
2023-03-23T01:25:02.513Z,0.00
2023-03-23T01:26:02.463Z,0.00
2023-03-23T01:27:02.480Z,0.00
2023-03-23T01:28:02.462Z,0.00
2023-03-23T01:29:02.459Z,0.00
2023-03-23T01:30:02.429Z,0.00
2023-03-23T01:31:02.410Z,0.00
2023-03-23T01:32:02.401Z,0.00
2023-03-23T01:33:02.404Z,0.00
2023-03-23T01:34:02.383Z,0.00
2023-03-23T01:35:02.379Z,0.00
2023-03-23T01:36:02.383Z,0.00
2023-03-23T01:37:02.356Z,0.00
2023-03-23T01:38:02.347Z,0.00
2023-03-23T01:39:02.346Z,0.00
2023-03-23T01:40:02.326Z,0.00
2023-03-23T01:41:02.301Z,0.00
2023-03-23T01:42:02.305Z,0.00
2023-03-23T01:43:02.316Z,0.00
2023-03-23T01:44:02.267Z,0.00
2023-03-23T01:45:02.270Z,0.00
2023-03-23T01:46:02.256Z,0.00
2023-03-23T01:47:02.237Z,0.00
2023-03-23T01:48:02.244Z,0.00
2023-03-23T01:49:02.223Z,0.00
2023-03-23T01:50:02.241Z,0.00
2023-03-23T01:51:02.225Z,0.00
2023-03-23T01:52:02.182Z,0.00
2023-03-23T01:53:02.176Z,0.00
2023-03-23T01:54:02.165Z,0.00
2023-03-23T01:55:02.171Z,0.00
2023-03-23T01:56:02.160Z,0.00
2023-03-23T01:57:02.128Z,0.00
2023-03-23T01:58:02.130Z,0.00
2023-03-23T01:59:02.111Z,0.00
2023-03-23T02:00:02.111Z,0.00
2023-03-23T02:01:02.106Z,0.00
2023-03-23T02:02:02.074Z,0.00
2023-03-23T02:03:02.071Z,0.00
2023-03-23T02:04:02.068Z,0.00
2023-03-23T02:05:02.052Z,0.00
2023-03-23T02:06:02.044Z,0.00
2023-03-23T02:07:02.027Z,0.00
2023-03-23T02:08:02.019Z,0.00
2023-03-23T02:09:10.368Z,0.00
2023-03-23T02:10:02.000Z,0.00
2023-03-23T02:11:02.013Z,0.00
2023-03-23T02:12:01.969Z,0.00
2023-03-23T02:13:01.960Z,0.00
2023-03-23T02:14:01.947Z,0.00
2023-03-23T02:15:01.938Z,0.00
2023-03-23T02:16:01.943Z,0.00
2023-03-23T02:17:01.927Z,0.00
2023-03-23T02:18:01.904Z,0.00
2023-03-23T02:19:01.892Z,0.00
2023-03-23T02:20:01.887Z,0.00
2023-03-23T02:21:01.882Z,0.00
2023-03-23T02:22:01.868Z,0.00
2023-03-23T02:23:01.850Z,0.00
2023-03-23T02:24:02.255Z,0.00
2023-03-23T02:25:01.824Z,0.00
2023-03-23T02:26:01.851Z,0.00
2023-03-23T02:27:01.837Z,0.00
2023-03-23T02:28:01.802Z,0.00
2023-03-23T02:29:01.790Z,0.00
2023-03-23T02:30:01.798Z,0.00
2023-03-23T02:31:01.785Z,0.00
2023-03-23T02:32:01.765Z,0.00
2023-03-23T02:33:01.744Z,0.00
2023-03-23T02:34:01.727Z,0.00
2023-03-23T02:35:01.780Z,0.00
2023-03-23T02:36:01.770Z,0.00
2023-03-23T02:37:01.745Z,0.00
2023-03-23T02:38:01.696Z,0.00
2023-03-23T02:39:01.678Z,0.00
2023-03-23T02:40:01.677Z,0.00
2023-03-23T02:41:01.666Z,0.00
2023-03-23T02:42:01.736Z,0.00
2023-03-23T02:43:02.671Z,0.00
2023-03-23T02:44:09.145Z,0.00
2023-03-23T02:45:01.659Z,0.00
2023-03-23T02:46:01.593Z,0.00
2023-03-23T02:47:01.619Z,0.00
2023-03-23T02:48:01.584Z,0.00
2023-03-23T02:49:01.585Z,0.00
2023-03-23T02:50:01.562Z,0.00
2023-03-23T02:51:01.542Z,0.00
2023-03-23T02:52:01.561Z,0.00
2023-03-23T02:53:01.555Z,0.00
2023-03-23T02:54:01.512Z,0.00
2023-03-23T02:55:01.522Z,0.00
2023-03-23T02:56:01.507Z,0.00
2023-03-23T02:57:01.489Z,0.00
2023-03-23T02:58:01.460Z,0.00
2023-03-23T02:59:01.482Z,0.00
2023-03-23T03:00:01.468Z,0.00
2023-03-23T03:01:01.434Z,0.00
2023-03-23T03:02:01.419Z,0.00
2023-03-23T03:03:01.421Z,0.00
2023-03-23T03:04:01.400Z,0.00
2023-03-23T03:05:01.391Z,0.00
2023-03-23T03:06:01.372Z,0.00
2023-03-23T03:07:01.366Z,0.00
2023-03-23T03:08:01.374Z,0.00
2023-03-23T03:09:01.370Z,0.00
2023-03-23T03:10:01.331Z,0.00
2023-03-23T03:11:01.349Z,0.00
2023-03-23T03:12:01.311Z,0.00
2023-03-23T03:13:01.305Z,0.00
2023-03-23T03:14:01.299Z,0.00
2023-03-23T03:15:01.338Z,0.00
2023-03-23T03:16:01.265Z,0.00
2023-03-23T03:17:01.284Z,0.00
2023-03-23T03:18:01.270Z,0.00
2023-03-23T03:19:01.247Z,0.00
2023-03-23T03:20:01.233Z,0.00
2023-03-23T03:21:01.226Z,0.00
2023-03-23T03:22:01.201Z,0.00
2023-03-23T03:23:01.195Z,0.00
2023-03-23T03:24:01.195Z,0.00
2023-03-23T03:25:01.193Z,0.00
2023-03-23T03:26:01.188Z,0.00
2023-03-23T03:27:01.157Z,0.00
2023-03-23T03:28:01.859Z,0.00
2023-03-23T03:29:01.148Z,0.00
2023-03-23T03:30:01.131Z,0.00
2023-03-23T03:31:01.128Z,0.00
2023-03-23T03:32:01.104Z,0.00
2023-03-23T03:33:01.084Z,0.00
2023-03-23T03:34:01.103Z,0.00
2023-03-23T03:35:01.065Z,0.00
2023-03-23T03:36:01.062Z,0.00
2023-03-23T03:37:01.044Z,0.00
2023-03-23T03:38:01.037Z,0.00
2023-03-23T03:39:01.038Z,0.00
2023-03-23T03:40:01.067Z,0.00
2023-03-23T03:41:01.000Z,0.00
2023-03-23T03:42:00.997Z,0.00
2023-03-23T03:43:00.976Z,0.00
2023-03-23T03:44:00.970Z,0.00
2023-03-23T03:45:00.976Z,0.00
2023-03-23T03:46:00.945Z,0.00
2023-03-23T03:47:00.952Z,0.00
2023-03-23T03:48:00.926Z,0.00
2023-03-23T03:49:00.934Z,0.00
2023-03-23T03:50:00.927Z,0.00
2023-03-23T03:51:00.899Z,0.00
2023-03-23T03:52:00.888Z,0.00
2023-03-23T03:53:00.922Z,0.00
2023-03-23T03:54:00.880Z,0.00
2023-03-23T03:55:00.855Z,0.00
2023-03-23T03:56:00.839Z,0.00
2023-03-23T03:57:00.822Z,0.00
2023-03-23T03:58:00.822Z,0.00
2023-03-23T03:59:00.812Z,0.00
2023-03-23T04:00:00.799Z,0.00
2023-03-23T04:01:00.777Z,0.00
2023-03-23T04:02:00.809Z,0.00
2023-03-23T04:03:00.792Z,0.00
2023-03-23T04:04:00.765Z,0.00
2023-03-23T04:05:00.744Z,0.00
2023-03-23T04:06:00.762Z,0.00
2023-03-23T04:07:00.735Z,0.00
2023-03-23T04:08:09.667Z,0.00
2023-03-23T04:09:07.822Z,0.00
2023-03-23T04:10:01.857Z,0.00
2023-03-23T04:11:00.685Z,0.00
2023-03-23T04:12:00.664Z,0.00
2023-03-23T04:13:00.652Z,0.00
2023-03-23T04:14:00.654Z,0.00
2023-03-23T04:15:06.344Z,0.00
2023-03-23T04:16:10.189Z,0.00
2023-03-23T04:17:00.609Z,0.00
2023-03-23T04:18:00.604Z,0.00
2023-03-23T04:19:00.604Z,0.00
2023-03-23T04:20:00.640Z,0.00
2023-03-23T04:21:00.574Z,0.00
2023-03-23T04:22:00.570Z,0.00
2023-03-23T04:23:00.537Z,0.00
2023-03-23T04:24:00.541Z,0.00
2023-03-23T04:25:00.529Z,0.00
2023-03-23T04:26:00.512Z,0.00
2023-03-23T04:27:02.845Z,0.00
2023-03-23T04:28:01.630Z,0.00
2023-03-23T04:29:00.492Z,0.00
2023-03-23T04:30:00.475Z,0.00
2023-03-23T04:31:00.485Z,0.00
2023-03-23T04:32:00.452Z,0.00
2023-03-23T04:33:00.438Z,0.00
2023-03-23T04:34:00.638Z,0.00
2023-03-23T04:35:12.959Z,0.00
2023-03-23T04:36:01.441Z,0.00
2023-03-23T04:37:00.387Z,0.00
2023-03-23T04:38:00.390Z,0.00
2023-03-23T04:39:00.369Z,0.00
2023-03-23T04:40:00.356Z,0.00
2023-03-23T04:41:00.377Z,0.00
2023-03-23T04:42:00.337Z,0.00
2023-03-23T04:43:00.334Z,0.00
2023-03-23T04:44:00.351Z,0.00
2023-03-23T04:45:07.853Z,0.00
2023-03-23T04:46:00.319Z,0.00
2023-03-23T04:47:00.295Z,0.00
2023-03-23T04:48:00.272Z,0.00
2023-03-23T04:49:00.256Z,0.00
2023-03-23T04:50:00.253Z,0.00
2023-03-23T04:51:00.270Z,0.00
2023-03-23T04:52:00.246Z,0.00
2023-03-23T04:53:00.217Z,0.00
2023-03-23T04:54:00.208Z,0.00
2023-03-23T04:55:00.207Z,0.00
2023-03-23T04:56:00.206Z,0.00
2023-03-23T04:57:00.172Z,0.00
2023-03-23T04:58:00.162Z,0.00
2023-03-23T04:59:00.167Z,0.00
2023-03-23T05:00:00.175Z,0.00
2023-03-23T05:01:00.125Z,0.00
2023-03-23T05:02:14.507Z,0.00
2023-03-23T05:03:00.115Z,0.00
2023-03-23T05:04:00.190Z,0.00
2023-03-23T05:05:00.172Z,0.00
2023-03-23T05:06:00.120Z,0.00
2023-03-23T05:07:00.100Z,0.00
2023-03-23T05:08:00.119Z,0.00
2023-03-23T05:09:00.058Z,0.00
2023-03-23T05:10:00.050Z,0.00
2023-03-23T05:11:00.022Z,0.00
2023-03-23T05:12:00.016Z,0.00
2023-03-23T05:12:59.996Z,0.00
2023-03-23T05:14:00.001Z,0.00
2023-03-23T05:14:59.974Z,0.00
2023-03-23T05:15:59.973Z,0.00
2023-03-23T05:16:59.954Z,0.00
2023-03-23T05:17:59.949Z,0.00
2023-03-23T05:18:59.942Z,0.00
2023-03-23T05:19:59.935Z,0.00
2023-03-23T05:20:59.928Z,0.00
2023-03-23T05:22:00.804Z,0.00
2023-03-23T05:22:59.904Z,0.00
2023-03-23T05:23:59.880Z,0.00
2023-03-23T05:24:59.871Z,0.00
2023-03-23T05:25:59.867Z,0.00
2023-03-23T05:26:59.861Z,0.00
2023-03-23T05:27:59.837Z,0.00
2023-03-23T05:28:59.819Z,0.00
2023-03-23T05:29:59.821Z,0.00
2023-03-23T05:30:59.796Z,0.00
2023-03-23T05:31:59.800Z,0.00
2023-03-23T05:32:59.777Z,0.00
2023-03-23T05:33:59.769Z,5.62
2023-03-23T05:34:59.769Z,5.62
2023-03-23T05:35:59.786Z,5.62
2023-03-23T05:36:59.736Z,5.62
2023-03-23T05:37:59.740Z,5.62
2023-03-23T05:38:59.733Z,5.62
2023-03-23T05:39:59.714Z,5.62
2023-03-23T05:40:59.715Z,5.62
2023-03-23T05:41:59.681Z,5.62
2023-03-23T05:42:59.686Z,5.62
2023-03-23T05:43:59.700Z,11.25
2023-03-23T05:44:59.656Z,11.25
2023-03-23T05:45:59.652Z,11.25
2023-03-23T05:46:59.644Z,11.25
2023-03-23T05:47:59.624Z,11.25
2023-03-23T05:48:59.600Z,11.25
2023-03-23T05:49:59.590Z,11.25
2023-03-23T05:50:59.601Z,11.25
2023-03-23T05:51:59.577Z,11.25
2023-03-23T05:52:59.581Z,11.25
2023-03-23T05:53:59.549Z,11.25
2023-03-23T05:54:59.558Z,11.25
2023-03-23T05:55:59.539Z,11.25
2023-03-23T05:56:59.539Z,11.25
2023-03-23T05:57:59.506Z,16.88
2023-03-23T05:58:59.503Z,16.88
2023-03-23T05:59:59.483Z,16.88
2023-03-23T06:00:59.471Z,22.50
2023-03-23T06:01:59.464Z,28.12
2023-03-23T06:02:59.454Z,28.12
2023-03-23T06:04:00.414Z,28.12
2023-03-23T06:04:59.451Z,28.12
2023-03-23T06:05:59.426Z,28.12
2023-03-23T06:06:59.424Z,33.75
2023-03-23T06:07:59.404Z,39.38
2023-03-23T06:08:59.401Z,39.38
2023-03-23T06:09:59.378Z,45.00
2023-03-23T06:10:59.381Z,45.00
2023-03-23T06:11:59.386Z,50.62
2023-03-23T06:12:59.342Z,50.62
2023-03-23T06:13:59.341Z,50.62
2023-03-23T06:14:59.348Z,56.25
2023-03-23T06:15:59.318Z,56.25
2023-03-23T06:16:59.311Z,56.25
2023-03-23T06:17:59.293Z,56.25
2023-03-23T06:18:59.295Z,50.62
2023-03-23T06:19:59.270Z,45.00
2023-03-23T06:20:59.322Z,39.38
2023-03-23T06:21:59.263Z,33.75
2023-03-23T06:22:59.302Z,28.12
2023-03-23T06:23:59.227Z,28.12
2023-03-23T06:24:59.210Z,28.12
2023-03-23T06:26:04.434Z,33.75
2023-03-23T06:27:00.235Z,39.38
2023-03-23T06:27:59.185Z,45.00
2023-03-23T06:28:59.171Z,45.00
2023-03-23T06:29:59.164Z,50.62
2023-03-23T06:30:59.161Z,56.25
2023-03-23T06:31:59.138Z,67.50
2023-03-23T06:32:59.125Z,73.12
2023-03-23T06:33:59.129Z,78.75
2023-03-23T06:34:59.132Z,73.12
2023-03-23T06:35:59.137Z,67.50
2023-03-23T06:36:59.094Z,67.50
2023-03-23T06:37:59.179Z,78.75
2023-03-23T06:38:59.069Z,90.00
2023-03-23T06:39:59.106Z,101.25
2023-03-23T06:40:59.108Z,101.25
2023-03-23T06:42:00.088Z,84.38
2023-03-23T06:42:59.046Z,78.75
2023-03-23T06:43:59.035Z,73.12
2023-03-23T06:44:59.004Z,67.50
2023-03-23T06:46:06.663Z,61.88
2023-03-23T06:46:58.977Z,56.25
2023-03-23T06:47:58.967Z,56.25
2023-03-23T06:48:59.877Z,56.25
2023-03-23T06:49:58.964Z,56.25
2023-03-23T06:50:59.617Z,61.88
2023-03-23T06:51:58.931Z,67.50
2023-03-23T06:52:58.924Z,73.12
2023-03-23T06:53:58.903Z,90.00
2023-03-23T06:54:58.909Z,101.25
2023-03-23T06:55:58.933Z,101.25
2023-03-23T06:56:58.995Z,101.25
2023-03-23T06:57:59.388Z,95.62
2023-03-23T06:58:58.912Z,90.00
2023-03-23T06:59:58.849Z,84.38
2023-03-23T07:00:58.845Z,78.75
2023-03-23T07:01:58.818Z,73.12
2023-03-23T07:02:58.813Z,73.12
2023-03-23T07:03:58.808Z,73.12
2023-03-23T07:04:58.804Z,78.75
2023-03-23T07:05:58.777Z,78.75
2023-03-23T07:06:58.775Z,78.75
2023-03-23T07:07:58.782Z,78.75
2023-03-23T07:08:58.750Z,78.75
2023-03-23T07:09:58.733Z,78.75
2023-03-23T07:10:58.711Z,73.12
2023-03-23T07:11:58.716Z,78.75
2023-03-23T07:12:58.715Z,78.75
2023-03-23T07:13:58.686Z,84.38
2023-03-23T07:14:58.722Z,90.00
2023-03-23T07:15:58.670Z,95.62
2023-03-23T07:16:58.658Z,106.88
2023-03-23T07:17:58.657Z,123.75
2023-03-23T07:18:58.685Z,135.00
2023-03-23T07:19:58.619Z,163.12
2023-03-23T07:20:58.615Z,185.62
2023-03-23T07:21:58.654Z,202.50
2023-03-23T07:22:58.598Z,219.38
2023-03-23T07:23:58.587Z,213.75
2023-03-23T07:24:58.646Z,191.25
2023-03-23T07:25:58.551Z,180.00
2023-03-23T07:26:58.561Z,174.38
2023-03-23T07:27:58.545Z,151.88
2023-03-23T07:28:58.524Z,135.00
2023-03-23T07:29:58.507Z,112.50
2023-03-23T07:30:58.534Z,90.00
2023-03-23T07:31:58.485Z,78.75
2023-03-23T07:32:58.471Z,67.50
2023-03-23T07:33:58.465Z,61.88
2023-03-23T07:34:58.473Z,61.88
2023-03-23T07:35:58.480Z,73.12
2023-03-23T07:36:58.429Z,90.00
2023-03-23T07:37:58.430Z,112.50
2023-03-23T07:38:58.404Z,123.75
2023-03-23T07:39:58.594Z,135.00
2023-03-23T07:40:59.984Z,140.62
2023-03-23T07:41:59.113Z,151.88
2023-03-23T07:43:08.538Z,163.12
2023-03-23T07:43:58.992Z,168.75
2023-03-23T07:44:58.350Z,174.38
2023-03-23T07:45:58.346Z,191.25
2023-03-23T07:46:58.795Z,191.25
2023-03-23T07:47:58.369Z,185.62
2023-03-23T07:48:58.346Z,174.38
2023-03-23T07:49:58.289Z,157.50
2023-03-23T07:50:58.265Z,146.25
2023-03-23T07:51:58.295Z,135.00
2023-03-23T07:52:58.247Z,135.00
2023-03-23T07:53:58.306Z,135.00
2023-03-23T07:54:58.238Z,140.62
2023-03-23T07:55:58.234Z,146.25
2023-03-23T07:56:58.215Z,157.50
2023-03-23T07:57:58.266Z,157.50
2023-03-23T07:58:58.247Z,151.88
2023-03-23T07:59:58.165Z,146.25
2023-03-23T08:00:58.157Z,146.25
2023-03-23T08:01:58.177Z,146.25
2023-03-23T08:02:58.164Z,157.50
2023-03-23T08:03:58.145Z,168.75
2023-03-23T08:04:58.133Z,180.00
2023-03-23T08:05:58.110Z,196.88
2023-03-23T08:06:58.098Z,208.12
2023-03-23T08:07:59.118Z,219.38
2023-03-23T08:08:58.113Z,225.00
2023-03-23T08:09:58.139Z,241.88
2023-03-23T08:10:58.049Z,258.75
2023-03-23T08:11:58.044Z,258.75
2023-03-23T08:12:58.026Z,253.12
2023-03-23T08:13:58.083Z,247.50
2023-03-23T08:14:58.023Z,219.38
2023-03-23T08:15:58.010Z,191.25
2023-03-23T08:16:57.982Z,185.62
2023-03-23T08:17:57.973Z,180.00
2023-03-23T08:18:58.026Z,180.00
2023-03-23T08:19:58.960Z,168.75
2023-03-23T08:20:57.966Z,168.75
2023-03-23T08:21:58.854Z,157.50
2023-03-23T08:22:57.953Z,157.50
2023-03-23T08:23:57.901Z,151.88
2023-03-23T08:24:57.913Z,151.88
2023-03-23T08:25:57.872Z,163.12
2023-03-23T08:26:58.107Z,157.50
2023-03-23T08:27:57.901Z,168.75
2023-03-23T08:28:57.856Z,180.00
2023-03-23T08:29:57.843Z,191.25
2023-03-23T08:30:57.873Z,208.12
2023-03-23T08:31:58.097Z,208.12
2023-03-23T08:32:57.840Z,213.75
2023-03-23T08:33:57.806Z,202.50
2023-03-23T08:34:57.820Z,185.62
2023-03-23T08:35:58.145Z,174.38
2023-03-23T08:36:57.890Z,174.38
2023-03-23T08:37:57.859Z,174.38
2023-03-23T08:38:57.732Z,168.75
2023-03-23T08:39:57.798Z,163.12
2023-03-23T08:40:57.717Z,163.12
2023-03-23T08:41:58.196Z,157.50
2023-03-23T08:43:57.689Z,135.00
2023-03-23T08:44:57.933Z,135.00
2023-03-23T08:45:57.657Z,146.25
2023-03-23T08:47:05.251Z,129.38
2023-03-23T08:47:57.865Z,118.12
2023-03-23T08:48:57.629Z,106.88
2023-03-23T08:49:57.616Z,101.25
2023-03-23T08:50:58.468Z,106.88
2023-03-23T08:51:57.769Z,118.12
2023-03-23T08:52:57.605Z,123.75
2023-03-23T08:53:57.667Z,123.75
2023-03-23T08:54:58.387Z,118.12
2023-03-23T08:55:57.544Z,129.38
2023-03-23T08:56:57.635Z,135.00
2023-03-23T08:57:57.539Z,135.00
2023-03-23T08:58:57.533Z,135.00
2023-03-23T08:59:57.497Z,135.00
2023-03-23T09:00:57.503Z,146.25
2023-03-23T09:01:57.498Z,151.88
2023-03-23T09:02:58.026Z,157.50
2023-03-23T09:03:57.492Z,168.75
2023-03-23T09:04:57.453Z,174.38
2023-03-23T09:05:57.457Z,174.38
2023-03-23T09:06:57.462Z,163.12
2023-03-23T09:07:57.455Z,174.38
2023-03-23T09:08:57.414Z,180.00
2023-03-23T09:09:57.479Z,196.88
2023-03-23T09:10:57.385Z,208.12
2023-03-23T09:11:58.711Z,213.75
2023-03-23T09:12:57.371Z,219.38
2023-03-23T09:13:57.346Z,230.62
2023-03-23T09:14:57.350Z,241.88
2023-03-23T09:15:57.632Z,230.62
2023-03-23T09:16:57.341Z,225.00
2023-03-23T09:17:57.312Z,236.25
2023-03-23T09:18:57.320Z,247.50
2023-03-23T09:19:57.280Z,247.50
2023-03-23T09:20:57.299Z,247.50
2023-03-23T09:21:57.264Z,253.12
2023-03-23T09:22:57.306Z,247.50
2023-03-23T09:23:57.286Z,230.62
2023-03-23T09:24:57.229Z,225.00
2023-03-23T09:25:57.227Z,219.38
2023-03-23T09:26:57.210Z,208.12
2023-03-23T09:27:57.194Z,191.25
2023-03-23T09:28:57.194Z,185.62
2023-03-23T09:29:57.185Z,191.25
2023-03-23T09:30:57.168Z,202.50
2023-03-23T09:31:57.156Z,208.12
2023-03-23T09:32:57.181Z,230.62
2023-03-23T09:33:57.143Z,236.25
2023-03-23T09:34:57.139Z,241.88
2023-03-23T09:35:57.185Z,264.38
2023-03-23T09:36:57.314Z,281.25
2023-03-23T09:37:57.087Z,292.50
2023-03-23T09:38:57.197Z,298.12
2023-03-23T09:40:06.717Z,286.88
2023-03-23T09:40:57.057Z,281.25
2023-03-23T09:41:57.054Z,264.38
2023-03-23T09:42:57.041Z,258.75
2023-03-23T09:43:57.034Z,241.88
2023-03-23T09:44:57.040Z,230.62
2023-03-23T09:45:56.997Z,208.12
2023-03-23T09:46:57.002Z,196.88
2023-03-23T09:47:56.995Z,208.12
2023-03-23T09:48:56.967Z,225.00
2023-03-23T09:49:56.960Z,230.62
2023-03-23T09:50:56.958Z,241.88
2023-03-23T09:51:56.933Z,236.25
2023-03-23T09:52:56.958Z,241.88
2023-03-23T09:53:56.915Z,236.25
2023-03-23T09:54:56.933Z,225.00
2023-03-23T09:55:56.908Z,230.62
2023-03-23T09:56:56.910Z,236.25
2023-03-23T09:57:56.889Z,236.25
2023-03-23T09:58:57.876Z,241.88
2023-03-23T09:59:56.857Z,236.25
2023-03-23T10:00:56.873Z,247.50
2023-03-23T10:01:56.826Z,236.25
2023-03-23T10:02:56.837Z,230.62
2023-03-23T10:03:56.802Z,241.88
2023-03-23T10:04:56.826Z,258.75
2023-03-23T10:05:56.804Z,258.75
2023-03-23T10:06:56.811Z,258.75
2023-03-23T10:07:56.797Z,331.88
2023-03-23T10:08:57.589Z,483.75
2023-03-23T10:09:56.757Z,618.75
2023-03-23T10:10:56.793Z,742.50
2023-03-23T10:11:56.725Z,916.88
2023-03-23T10:12:56.716Z,1046.25
2023-03-23T10:13:56.721Z,1198.12
2023-03-23T10:14:56.704Z,1023.75
2023-03-23T10:15:56.725Z,950.62
2023-03-23T10:16:56.677Z,1440.00
2023-03-23T10:17:56.688Z,748.12
2023-03-23T10:18:56.655Z,759.38
2023-03-23T10:19:56.636Z,697.50
2023-03-23T10:20:57.412Z,804.38
2023-03-23T10:21:56.615Z,590.62
2023-03-23T10:22:56.622Z,551.25
2023-03-23T10:23:56.598Z,472.50
2023-03-23T10:24:56.574Z,360.00
2023-03-23T10:25:56.600Z,303.75
2023-03-23T10:26:56.595Z,253.12
2023-03-23T10:27:56.556Z,208.12
2023-03-23T10:28:56.527Z,191.25
2023-03-23T10:29:56.515Z,213.75
2023-03-23T10:30:56.506Z,253.12
2023-03-23T10:31:56.512Z,258.75
2023-03-23T10:32:56.484Z,258.75
2023-03-23T10:33:56.470Z,286.88
2023-03-23T10:34:56.464Z,292.50
2023-03-23T10:35:56.482Z,275.62
2023-03-23T10:36:56.494Z,298.12
2023-03-23T10:37:56.434Z,337.50
2023-03-23T10:38:56.432Z,298.12
2023-03-23T10:39:56.405Z,230.62
2023-03-23T10:40:56.413Z,191.25
2023-03-23T10:41:56.390Z,157.50
2023-03-23T10:42:56.435Z,129.38
2023-03-23T10:43:56.442Z,129.38
2023-03-23T10:44:56.354Z,118.12
2023-03-23T10:46:00.551Z,101.25
2023-03-23T10:46:56.337Z,101.25
2023-03-23T10:48:03.840Z,106.88
2023-03-23T10:48:56.325Z,118.12
2023-03-23T10:49:56.303Z,112.50
2023-03-23T10:50:56.289Z,101.25
2023-03-23T10:51:56.277Z,84.38
2023-03-23T10:52:56.283Z,73.12
2023-03-23T10:53:56.261Z,73.12
2023-03-23T10:54:56.298Z,73.12
2023-03-23T10:55:56.265Z,73.12
2023-03-23T10:56:59.808Z,73.12
2023-03-23T10:57:56.227Z,61.88
2023-03-23T10:58:56.225Z,56.25
2023-03-23T10:59:56.235Z,67.50
2023-03-23T11:00:56.210Z,67.50
2023-03-23T11:01:56.239Z,67.50
2023-03-23T11:02:56.193Z,61.88
2023-03-23T11:03:56.167Z,56.25
2023-03-23T11:04:56.151Z,50.62
2023-03-23T11:05:56.215Z,45.00
2023-03-23T11:06:56.170Z,39.38
2023-03-23T11:07:56.145Z,33.75
2023-03-23T11:08:56.187Z,28.12
2023-03-23T11:09:56.116Z,28.12
2023-03-23T11:10:56.086Z,28.12
2023-03-23T11:12:01.890Z,33.75
2023-03-23T11:12:56.123Z,39.38
2023-03-23T11:13:56.068Z,45.00
2023-03-23T11:14:56.057Z,45.00
2023-03-23T11:15:56.040Z,45.00
2023-03-23T11:16:59.380Z,56.25
2023-03-23T11:17:56.001Z,67.50
2023-03-23T11:18:56.002Z,73.12
2023-03-23T11:19:55.994Z,84.38
2023-03-23T11:20:56.055Z,78.75
2023-03-23T11:21:55.989Z,78.75
2023-03-23T11:22:55.965Z,78.75
2023-03-23T11:24:09.071Z,84.38
2023-03-23T11:24:55.924Z,95.62
2023-03-23T11:25:55.922Z,101.25
2023-03-23T11:26:58.906Z,101.25
2023-03-23T11:27:55.948Z,95.62
2023-03-23T11:28:55.921Z,101.25
2023-03-23T11:29:58.700Z,101.25
2023-03-23T11:30:55.888Z,90.00
2023-03-23T11:31:55.852Z,90.00
2023-03-23T11:32:55.842Z,95.62
2023-03-23T11:34:05.953Z,90.00
2023-03-23T11:34:59.438Z,84.38
2023-03-23T11:35:55.850Z,73.12
2023-03-23T11:36:57.228Z,73.12
2023-03-23T11:37:55.893Z,67.50
2023-03-23T11:38:55.836Z,73.12
2023-03-23T11:39:55.801Z,78.75
2023-03-23T11:40:56.452Z,78.75
2023-03-23T11:42:08.807Z,78.75
2023-03-23T11:42:55.726Z,78.75
2023-03-23T11:43:55.725Z,73.12
2023-03-23T11:44:55.714Z,78.75
2023-03-23T11:45:55.684Z,95.62
2023-03-23T11:46:55.701Z,112.50
2023-03-23T11:47:55.676Z,135.00
2023-03-23T11:48:55.698Z,140.62
2023-03-23T11:49:55.749Z,146.25
2023-03-23T11:50:55.655Z,151.88
2023-03-23T11:51:55.622Z,123.75
2023-03-23T11:52:55.615Z,106.88
2023-03-23T11:53:55.612Z,90.00
2023-03-23T11:54:55.609Z,84.38
2023-03-23T11:55:55.645Z,84.38
2023-03-23T11:56:55.573Z,78.75
2023-03-23T11:57:55.974Z,73.12
2023-03-23T11:58:55.893Z,78.75
2023-03-23T11:59:55.534Z,90.00
2023-03-23T12:00:55.522Z,106.88
2023-03-23T12:01:55.511Z,106.88
2023-03-23T12:02:55.632Z,101.25
2023-03-23T12:03:55.525Z,90.00
2023-03-23T12:04:55.485Z,84.38
2023-03-23T12:05:55.535Z,90.00
2023-03-23T12:06:55.514Z,112.50
2023-03-23T12:07:55.456Z,123.75
2023-03-23T12:08:55.485Z,135.00
2023-03-23T12:09:55.444Z,146.25
2023-03-23T12:10:57.096Z,146.25
2023-03-23T12:11:55.404Z,129.38
2023-03-23T12:12:55.969Z,106.88
2023-03-23T12:13:56.842Z,101.25
2023-03-23T12:14:55.368Z,106.88
2023-03-23T12:15:55.378Z,118.12
2023-03-23T12:16:55.997Z,129.38
2023-03-23T12:17:55.399Z,140.62
2023-03-23T12:18:55.374Z,151.88
2023-03-23T12:19:55.326Z,151.88
2023-03-23T12:20:55.301Z,135.00
2023-03-23T12:21:55.320Z,129.38
2023-03-23T12:22:55.290Z,123.75
2023-03-23T12:23:55.273Z,123.75
2023-03-23T12:24:55.287Z,123.75
2023-03-23T12:25:55.252Z,135.00
2023-03-23T12:26:55.246Z,157.50
2023-03-23T12:27:55.247Z,180.00
2023-03-23T12:28:55.241Z,180.00
2023-03-23T12:29:55.219Z,180.00
2023-03-23T12:30:55.773Z,174.38
2023-03-23T12:31:55.197Z,157.50
2023-03-23T12:32:55.211Z,140.62
2023-03-23T12:33:55.223Z,135.00
2023-03-23T12:34:55.177Z,135.00
2023-03-23T12:35:55.163Z,135.00
2023-03-23T12:36:55.144Z,157.50
2023-03-23T12:37:55.122Z,202.50
2023-03-23T12:38:55.107Z,219.38
2023-03-23T12:39:55.134Z,213.75
2023-03-23T12:40:55.719Z,196.88
2023-03-23T12:41:55.079Z,196.88
2023-03-23T12:42:55.063Z,196.88
2023-03-23T12:43:55.067Z,196.88
2023-03-23T12:44:55.044Z,185.62
2023-03-23T12:45:55.064Z,180.00
2023-03-23T12:46:55.046Z,180.00
2023-03-23T12:47:55.013Z,180.00
2023-03-23T12:49:02.547Z,174.38
2023-03-23T12:49:54.989Z,163.12
2023-03-23T12:50:55.043Z,140.62
2023-03-23T12:51:56.280Z,123.75
2023-03-23T12:52:54.970Z,118.12
2023-03-23T12:53:54.946Z,118.12
2023-03-23T12:54:54.935Z,118.12